Time;durP1;ratioP1;P1;durP2;ratioP2;P2;SDS_P1;SDS_P2;PMS_P1;PMS_P2;Temp;Humidity;BMP_temperature;BMP_pressure;BME280_temperature;BME280_humidity;BME280_pressure;Samples;Min_cycle;Max_cycle;Signal;HPM_P1;HPM_P2
2023/03/26 00:00:47;;;;;;;;;;;10.40;91.90;;;9.77;75.03;99725.88;5051142;28;20008;-77
2023/03/26 00:03:15;;;;;;;;;;;10.40;91.80;;;9.77;75.24;99720.56;5037329;28;19928;-76
2023/03/26 00:05:43;;;;;;;;;;;10.40;92.20;;;9.76;75.09;99718.94;5045839;28;19935;-78
2023/03/26 00:08:10;;;;;;;;;;;10.40;92.00;;;9.78;75.14;99716.84;5046406;28;20011;-77
2023/03/26 00:10:37;;;;;;;;;;;10.50;92.00;;;9.78;75.55;99722.19;5029524;28;20396;-78
2023/03/26 00:13:06;;;;;;;;;;;10.40;92.30;;;9.79;75.51;99718.47;5038397;28;20467;-78
2023/03/26 00:15:34;;;;;;;;;;;10.40;92.20;;;9.80;75.61;99709.44;5049158;28;19928;-77
2023/03/26 00:18:01;;;;;;;;;;;10.40;92.20;;;9.80;75.64;99719.28;5046885;28;19924;-78
2023/03/26 00:20:31;;;;;;;;;;;10.40;92.30;;;9.80;75.71;99717.44;5050896;28;19928;-77
2023/03/26 00:23:00;;;;;;;;;;;10.40;92.40;;;9.78;75.79;99716.03;5050095;28;19927;-78
2023/03/26 00:25:27;;;;;;;;;;;10.40;92.50;;;9.78;75.86;99713.38;5045597;28;19925;-78
2023/03/26 00:27:54;;;;;;;;;;;10.40;92.50;;;9.79;75.87;99713.16;5047546;28;20367;-78
2023/03/26 00:30:23;;;;;;;;;;;10.50;92.40;;;9.82;76.02;99708.44;5050478;28;19980;-78
2023/03/26 00:32:50;;;;;;;;;;;10.50;92.70;;;9.80;75.60;99703.31;5045155;28;19920;-78
2023/03/26 00:35:17;;;;;;;;;;;10.60;92.30;;;9.78;75.77;99702.72;5034818;28;20003;-78
2023/03/26 00:37:44;;;;;;;;;;;10.40;92.40;;;9.79;75.80;99701.69;5043303;28;20467;-77
2023/03/26 00:40:12;;;;;;;;;;;10.40;92.40;;;9.76;75.30;99702.97;5029957;28;20462;-79
2023/03/26 00:42:41;;;;;;;;;;;10.40;92.20;;;9.74;75.68;99704.22;5031950;28;19925;-79
2023/03/26 00:45:08;;;;;;;;;;;10.40;92.30;;;9.74;75.62;99697.03;5025108;28;20401;-76
2023/03/26 00:47:38;;;;;;;;;;;10.40;92.40;;;9.75;75.57;99705.84;5025232;28;19931;-77
2023/03/26 00:50:14;;;;;;;;;;;10.40;92.40;;;9.76;75.50;99691.47;5043171;28;20024;-81
2023/03/26 00:52:42;;;;;;;;;;;10.40;92.20;;;9.73;75.30;99692.75;5044232;28;20430;-79
2023/03/26 00:55:09;;;;;;;;;;;10.40;92.20;;;9.73;75.58;99687.44;5034660;28;20441;-79
2023/03/26 00:57:36;;;;;;;;;;;10.40;92.30;;;9.74;75.65;99686.38;5035387;28;19925;-78
2023/03/26 01:00:14;;;;;;;;;;;10.40;92.20;;;9.76;75.42;99692.31;5039681;28;19932;-81
2023/03/26 01:02:44;;;;;;;;;;;10.40;92.20;;;9.76;75.38;99687.00;5039386;28;19924;-80
2023/03/26 01:05:43;;;;;;;;;;;10.40;92.00;;;9.75;75.26;99685.34;5046054;28;19925;-78
2023/03/26 01:08:16;;;;;;;;;;;10.40;92.10;;;9.75;75.29;99679.22;4942210;28;20451;-78
2023/03/26 01:10:49;;;;;;;;;;;10.40;92.00;;;9.75;75.28;99679.22;5031712;28;19929;-79
2023/03/26 01:13:18;;;;;;;;;;;10.40;91.90;;;9.77;75.51;99675.28;5046089;28;20023;-77
2023/03/26 01:15:49;;;;;;;;;;;10.40;92.00;;;9.77;75.27;99667.31;5041318;28;20353;-77
2023/03/26 01:18:20;;;;;;;;;;;10.40;92.00;;;9.77;75.20;99659.31;5031430;28;19970;-77
2023/03/26 01:20:49;;;;;;;;;;;10.40;91.90;;;9.76;74.99;99663.03;5031952;28;19924;-80
2023/03/26 01:23:22;;;;;;;;;;;10.40;91.80;;;9.76;75.17;99663.03;5028659;28;20404;-78
2023/03/26 01:25:57;;;;;;;;;;;10.40;92.00;;;9.77;75.17;99667.31;5036993;28;19932;-78
2023/03/26 01:28:25;;;;;;;;;;;10.40;91.90;;;9.77;74.62;99664.66;5048901;28;19929;-79
2023/03/26 01:31:00;;;;;;;;;;;10.40;91.80;;;9.76;74.93;99663.03;5031897;28;19924;-79
2023/03/26 01:33:32;;;;;;;;;;;10.40;91.80;;;9.77;74.91;99655.84;5021792;28;20028;-78
2023/03/26 01:36:02;;;;;;;;;;;10.40;91.80;;;9.78;74.85;99654.81;5029351;28;19932;-80
2023/03/26 01:38:34;;;;;;;;;;;10.40;91.70;;;9.78;74.59;99652.13;5045925;28;19928;-78
2023/03/26 01:41:08;;;;;;;;;;;10.40;91.60;;;9.77;74.65;99653.19;5047915;28;19967;-77
2023/03/26 01:43:39;;;;;;;;;;;10.40;91.60;;;9.78;74.64;99657.47;5041306;28;20389;-79
2023/03/26 01:46:09;;;;;;;;;;;10.40;91.70;;;9.76;74.47;99641.72;5028666;28;20653;-77
2023/03/26 01:48:39;;;;;;;;;;;10.40;91.50;;;9.75;74.58;99644.59;5036350;28;19921;-78
2023/03/26 01:51:07;;;;;;;;;;;10.40;91.60;;;9.75;74.72;99640.06;5031478;28;19995;-82
2023/03/26 01:53:37;;;;;;;;;;;10.40;91.60;;;9.76;74.65;99632.91;5028018;28;20019;-77
2023/03/26 01:56:12;;;;;;;;;;;10.40;91.60;;;9.77;74.77;99635.34;5041463;28;19924;-79
2023/03/26 01:58:48;;;;;;;;;;;10.40;91.60;;;9.77;74.70;99627.38;5038059;28;20432;-77
2023/03/26 02:01:23;;;;;;;;;;;10.40;91.60;;;9.78;74.72;99631.66;5030971;28;19921;-77
2023/03/26 02:03:54;;;;;;;;;;;10.40;91.60;;;9.79;74.46;99617.28;5019316;28;19925;-80
2023/03/26 02:06:25;;;;;;;;;;;10.40;91.40;;;9.78;74.25;99610.34;5018662;28;19928;-77
2023/03/26 02:08:56;;;;;;;;;;;10.40;91.20;;;9.77;73.65;99607.91;5037976;28;20300;-76
2023/03/26 02:11:24;;;;;;;;;;;10.40;90.60;;;9.75;73.44;99607.31;5025143;28;19940;-78
2023/03/26 02:13:51;;;;;;;;;;;10.40;90.60;;;9.73;73.21;99602.22;5023627;28;20024;-78
2023/03/26 02:16:20;;;;;;;;;;;10.40;90.40;;;9.73;72.93;99606.75;5015736;28;19967;-78
2023/03/26 02:18:50;;;;;;;;;;;10.40;90.20;;;9.70;72.73;99602.66;5020728;28;20413;-78
2023/03/26 02:21:20;;;;;;;;;;;10.30;90.20;;;9.66;72.81;99592.69;5020167;28;19935;-76
2023/03/26 02:23:56;;;;;;;;;;;10.30;90.20;;;9.64;72.60;99597.44;5016547;28;19937;-79
2023/03/26 02:26:25;;;;;;;;;;;10.30;90.30;;;9.61;72.76;99592.56;5020630;28;20028;-79
2023/03/26 02:28:57;;;;;;;;;;;10.30;90.20;;;9.61;72.79;99590.72;5025290;28;19924;-77
2023/03/26 02:31:25;;;;;;;;;;;10.30;90.20;;;9.60;72.72;99590.94;5027666;28;19931;-78
2023/03/26 02:33:52;;;;;;;;;;;10.20;90.00;;;9.58;72.61;99588.53;5026710;28;19929;-80
2023/03/26 02:36:23;;;;;;;;;;;10.30;90.20;;;9.60;72.71;99585.63;5027786;28;20015;-77
2023/03/26 02:38:52;;;;;;;;;;;10.20;90.20;;;9.60;72.79;99581.09;5029409;28;19979;-80
2023/03/26 02:41:20;;;;;;;;;;;10.20;90.40;;;9.58;73.10;99575.22;5023546;28;20011;-81
2023/03/26 02:44:08;;;;;;;;;;;10.20;90.70;;;9.58;73.29;99577.06;5030987;28;20381;-78
2023/03/26 02:46:54;;;;;;;;;;;10.20;90.80;;;9.59;73.56;99574.16;5035735;28;19994;-78
2023/03/26 02:49:36;;;;;;;;;;;10.20;90.90;;;9.59;73.55;99568.03;5040148;28;19924;-76
2023/03/26 02:52:05;;;;;;;;;;;10.20;90.90;;;9.59;73.59;99573.34;5024324;28;19928;-78
2023/03/26 02:54:33;;;;;;;;;;;10.20;90.90;;;9.60;73.59;99569.66;5025391;28;19925;-77
2023/03/26 02:57:26;;;;;;;;;;;10.20;91.00;;;9.59;73.70;99566.19;5045622;28;19920;-78
2023/03/26 02:59:57;;;;;;;;;;;10.20;91.00;;;9.61;73.82;99571.25;5047123;28;20381;-79
2023/03/26 03:02:51;;;;;;;;;;;10.20;91.10;;;9.61;74.04;99555.28;5034241;28;19933;-78
2023/03/26 03:05:30;;;;;;;;;;;10.30;91.30;;;9.61;74.16;99547.31;5037753;28;19925;-79
2023/03/26 03:08:18;;;;;;;;;;;10.30;91.30;;;9.62;74.07;99535.66;5038355;28;19925;-79
2023/03/26 03:11:14;;;;;;;;;;;10.30;91.30;;;9.63;74.03;99526.63;5028062;28;20276;-79
2023/03/26 03:13:46;;;;;;;;;;;10.30;91.30;;;9.64;74.13;99528.22;5027184;28;19952;-78
2023/03/26 03:16:18;;;;;;;;;;;10.30;91.30;;;9.64;74.18;99518.38;5033319;28;20388;-76
2023/03/26 03:18:46;;;;;;;;;;;10.30;91.30;;;9.65;74.21;99520.00;5032461;28;19931;-78
2023/03/26 03:21:13;;;;;;;;;;;10.30;91.20;;;9.67;73.92;99517.13;5026237;28;19931;-78
2023/03/26 03:23:40;;;;;;;;;;;10.40;91.30;;;9.68;74.25;99516.09;5030200;28;19920;-80
2023/03/26 03:26:14;;;;;;;;;;;10.40;91.20;;;9.69;74.27;99515.84;5016845;28;19955;-76
2023/03/26 03:28:45;;;;;;;;;;;10.40;91.20;;;9.71;74.19;99510.28;5024489;28;19925;-77
2023/03/26 03:31:15;;;;;;;;;;;10.40;91.20;;;9.71;74.08;99505.81;5026512;28;19928;-77
2023/03/26 03:33:45;;;;;;;;;;;10.40;91.10;;;9.72;73.94;99507.41;5053704;28;20032;-78
2023/03/26 03:36:14;;;;;;;;;;;10.40;91.00;;;9.72;73.87;99502.09;5040383;28;20018;-80
2023/03/26 03:38:41;;;;;;;;;;;10.40;91.00;;;9.73;73.91;99509.03;5030485;28;20446;-79
2023/03/26 03:41:11;;;;;;;;;;;10.40;91.00;;;9.73;73.98;99494.91;5028382;28;19943;-78
2023/03/26 03:43:41;;;;;;;;;;;10.40;91.00;;;9.74;73.79;99500.00;5017365;28;19928;-79
2023/03/26 03:46:15;;;;;;;;;;;10.40;90.90;;;9.74;73.84;99496.53;5026288;28;20027;-77
2023/03/26 03:48:48;;;;;;;;;;;10.40;90.90;;;9.75;73.88;99496.28;5035573;28;20402;-78
2023/03/26 03:51:18;;;;;;;;;;;10.40;91.00;;;9.75;73.93;99498.16;5024074;28;20043;-77
2023/03/26 03:53:49;;;;;;;;;;;10.50;91.00;;;9.75;73.83;99488.31;5026934;28;19932;-79
2023/03/26 03:56:24;;;;;;;;;;;10.50;91.00;;;9.76;73.84;99487.28;5029365;28;19935;-78
2023/03/26 03:59:11;;;;;;;;;;;10.50;91.00;;;9.78;74.06;99489.72;5042206;28;20400;-78
2023/03/26 04:01:42;;;;;;;;;;;10.50;91.10;;;9.78;73.99;99476.41;5034140;28;20523;-81
2023/03/26 04:04:20;;;;;;;;;;;10.50;91.00;;;9.77;74.11;99478.25;5033410;28;19924;-77
2023/03/26 04:07:09;;;;;;;;;;;10.50;91.00;;;9.78;74.06;99476.41;5029711;28;20682;-78
2023/03/26 04:12:30;;;;;;;;;;;10.50;91.00;;;9.77;73.87;99466.78;5021787;28;20015;-84
2023/03/26 04:15:00;;;;;;;;;;;10.50;90.80;;;9.77;73.68;99474.78;5027083;28;19929;-84
2023/03/26 04:17:29;;;;;;;;;;;10.50;90.60;;;9.75;73.29;99466.19;5029448;28;19928;-86
2023/03/26 04:20:04;;;;;;;;;;;10.50;90.30;;;9.73;73.11;99462.97;5031613;28;19935;-83
2023/03/26 04:22:33;;;;;;;;;;;10.50;90.30;;;9.72;73.35;99459.50;5042244;28;19924;-86
2023/03/26 04:25:04;;;;;;;;;;;10.40;90.20;;;9.70;73.03;99450.91;5046721;28;20091;-85
2023/03/26 04:27:51;;;;;;;;;;;10.40;90.20;;;9.69;73.04;99448.47;5032233;28;19983;-85
2023/03/26 04:30:53;;;;;;;;;;;10.40;90.20;;;9.68;72.98;99445.03;5022567;28;19987;-84
2023/03/26 04:33:47;;;;;;;;;;;10.40;90.20;;;9.68;72.95;99442.34;5036484;28;19921;-85
2023/03/26 04:36:18;;;;;;;;;;;10.40;90.20;;;9.68;73.12;99439.69;5034614;28;20400;-83
2023/03/26 04:38:50;;;;;;;;;;;10.40;90.30;;;9.69;73.21;99437.84;5044274;28;19921;-84
2023/03/26 04:41:21;;;;;;;;;;;10.40;90.40;;;9.68;73.14;99431.72;5041542;28;19932;-84
2023/03/26 04:43:55;;;;;;;;;;;10.40;90.40;;;9.68;73.14;99420.25;5049317;28;19991;-86
2023/03/26 04:46:36;;;;;;;;;;;10.40;90.40;;;9.68;73.23;99421.06;5047282;28;20339;-83
2023/03/26 04:49:13;;;;;;;;;;;10.40;90.40;;;9.68;73.28;99420.25;5049855;28;19920;-83
2023/03/26 04:51:43;;;;;;;;;;;10.40;90.60;;;9.69;73.49;99419.19;5042288;28;20400;-88
2023/03/26 04:54:24;;;;;;;;;;;10.40;90.60;;;9.68;73.28;99418.41;5040945;28;19932;-84
2023/03/26 04:57:02;;;;;;;;;;;10.40;90.60;;;9.68;73.43;99415.72;5040847;28;19936;-83
2023/03/26 04:59:35;;;;;;;;;;;10.40;90.60;;;9.69;73.08;99408.56;5039488;28;20441;-85
2023/03/26 05:02:14;;;;;;;;;;;10.40;90.40;;;9.68;73.17;99401.63;5042294;28;19972;-86
2023/03/26 05:04:56;;;;;;;;;;;10.40;90.50;;;9.69;73.24;99403.22;5063571;28;20317;-84
2023/03/26 05:07:26;;;;;;;;;;;10.40;90.50;;;9.68;73.31;99394.44;5045940;28;20722;-84
2023/03/26 05:09:56;;;;;;;;;;;10.40;90.40;;;9.69;73.17;99395.25;5038884;28;20016;-84
2023/03/26 05:12:35;;;;;;;;;;;10.40;90.40;;;9.67;73.21;99387.50;5040207;28;19925;-85
2023/03/26 05:15:08;;;;;;;;;;;10.40;90.50;;;9.68;73.33;99396.28;5046429;28;19921;-86
2023/03/26 05:17:48;;;;;;;;;;;10.40;90.60;;;9.68;73.27;99386.44;5053855;28;20477;-85
2023/03/26 05:20:25;;;;;;;;;;;10.40;90.50;;;9.68;73.21;99380.31;5038998;28;19925;-86
2023/03/26 05:22:54;;;;;;;;;;;10.40;90.50;;;9.68;73.23;99378.47;5031864;28;19921;-84
2023/03/26 05:25:34;;;;;;;;;;;10.40;90.40;;;9.69;73.18;99376.59;5045796;28;19960;-84
2023/03/26 05:28:02;;;;;;;;;;;10.40;90.40;;;9.68;73.33;99373.13;5038157;28;19928;-86
2023/03/26 05:30:43;;;;;;;;;;;10.40;90.40;;;9.67;73.27;99363.53;5042168;28;20040;-85
2023/03/26 05:33:10;;;;;;;;;;;10.40;90.50;;;9.67;73.39;99357.41;5029461;28;19925;-81
2023/03/26 05:35:48;;;;;;;;;;;10.40;90.60;;;9.67;73.70;99360.88;5040660;28;19986;-86
2023/03/26 05:38:17;;;;;;;;;;;10.40;90.80;;;9.67;73.79;99363.53;5040204;28;19959;-87
2023/03/26 05:40:44;;;;;;;;;;;10.40;90.80;;;9.67;73.96;99354.75;5037803;28;19921;-84
2023/03/26 05:43:15;;;;;;;;;;;10.30;90.80;;;9.67;73.93;99349.41;5036936;28;19931;-85
2023/03/26 05:45:48;;;;;;;;;;;10.40;90.90;;;9.66;73.79;99351.28;5038571;28;20039;-88
2023/03/26 05:48:21;;;;;;;;;;;10.40;90.90;;;9.65;73.71;99338.97;5039508;28;19950;-86
2023/03/26 05:50:48;;;;;;;;;;;10.40;90.80;;;9.67;73.78;99333.44;5028669;28;19936;-85
2023/03/26 05:53:18;;;;;;;;;;;10.40;90.90;;;9.67;73.88;99331.59;5040006;28;20014;-83
2023/03/26 05:55:49;;;;;;;;;;;10.40;91.00;;;9.66;73.95;99327.31;5044081;28;19933;-85
2023/03/26 05:58:36;;;;;;;;;;;10.40;91.00;;;9.66;73.93;99315.81;5040963;28;19932;-83
2023/03/26 06:01:24;;;;;;;;;;;10.30;91.00;;;9.65;74.11;99317.69;5049543;28;19995;-82
2023/03/26 06:04:12;;;;;;;;;;;10.40;91.00;;;9.65;74.16;99307.03;5042752;28;19932;-84
2023/03/26 06:06:44;;;;;;;;;;;10.30;91.20;;;9.65;74.28;99316.88;5044139;28;20362;-85
2023/03/26 06:09:13;;;;;;;;;;;10.40;91.30;;;9.66;74.46;99318.50;5044866;28;19944;-85
2023/03/26 06:11:41;;;;;;;;;;;10.40;91.30;;;9.67;74.42;99314.81;5049938;28;19925;-86
2023/03/26 06:14:10;;;;;;;;;;;10.40;91.40;;;9.66;74.44;99315.81;5046691;28;19920;-86
2023/03/26 06:16:41;;;;;;;;;;;10.40;91.40;;;9.68;74.49;99311.09;5038104;28;19928;-85
2023/03/26 06:19:17;;;;;;;;;;;10.40;91.40;;;9.67;74.63;99299.66;5037055;28;19928;-85
2023/03/26 06:22:10;;;;;;;;;;;10.30;91.40;;;9.69;74.61;99302.88;5040286;28;19924;-84
2023/03/26 06:24:58;;;;;;;;;;;10.40;91.40;;;9.69;74.79;99305.53;5044081;28;19925;-85
2023/03/26 06:27:58;;;;;;;;;;;10.40;91.60;;;9.69;74.86;99302.88;5010635;28;19928;-85
2023/03/26 06:30:43;;;;;;;;;;;10.40;91.60;;;9.70;75.00;99296.50;5040137;28;19928;-85
2023/03/26 06:33:37;;;;;;;;;;;10.40;91.70;;;9.71;74.94;99298.13;5031204;28;19925;-86
2023/03/26 06:36:04;;;;;;;;;;;10.40;91.70;;;9.72;75.02;99294.41;5035190;28;19947;-84
2023/03/26 06:38:34;;;;;;;;;;;10.40;91.70;;;9.73;75.00;99292.56;5035190;28;19929;-83
2023/03/26 06:41:13;;;;;;;;;;;10.50;91.70;;;9.75;75.21;99301.13;5026566;28;20336;-83
2023/03/26 06:44:01;;;;;;;;;;;10.50;91.80;;;9.76;75.06;99303.56;5032312;28;19925;-81
2023/03/26 06:46:48;;;;;;;;;;;10.50;91.60;;;9.76;75.08;99298.25;5037334;28;19983;-84
2023/03/26 06:49:53;;;;;;;;;;;10.50;91.70;;;9.77;75.00;99293.72;5037175;28;19921;-84
2023/03/26 06:52:35;;;;;;;;;;;10.50;91.60;;;9.78;75.10;99296.13;5035600;28;19986;-84
2023/03/26 06:55:21;;;;;;;;;;;10.50;91.80;;;9.78;75.14;99290.81;5033109;28;19967;-81
2023/03/26 06:58:05;;;;;;;;;;;10.50;91.80;;;9.79;75.30;99289.75;5041177;28;19921;-84
2023/03/26 07:00:57;;;;;;;;;;;10.50;91.90;;;9.80;75.31;99285.25;5018515;28;20332;-87
2023/03/26 07:03:43;;;;;;;;;;;10.50;92.00;;;9.82;75.51;99280.50;5045860;28;19935;-83
2023/03/26 07:06:29;;;;;;;;;;;10.50;92.00;;;9.83;75.36;99273.34;5039582;28;19928;-84
2023/03/26 07:09:18;;;;;;;;;;;10.60;92.00;;;9.83;75.52;99271.47;5043066;28;20011;-85
2023/03/26 07:11:45;;;;;;;;;;;10.50;92.10;;;9.85;75.65;99269.38;5041378;28;20380;-82
2023/03/26 07:14:33;;;;;;;;;;;10.60;92.20;;;9.87;75.81;99271.81;5039791;28;20292;-83
2023/03/26 07:17:29;;;;;;;;;;;10.60;92.20;;;9.87;75.81;99256.66;4967656;28;20379;-84
2023/03/26 07:20:09;;;;;;;;;;;10.60;92.20;;;9.90;75.76;99260.69;5035849;28;19935;-78
2023/03/26 07:22:36;;;;;;;;;;;10.60;92.10;;;9.90;75.67;99258.00;5036475;28;20019;-80
2023/03/26 07:25:08;;;;;;;;;;;10.60;92.00;;;9.91;75.78;99254.31;5040406;28;19924;-78
2023/03/26 07:27:56;;;;;;;;;;;10.60;92.10;;;9.92;75.81;99258.59;5040110;28;19932;-82
2023/03/26 07:30:56;;;;;;;;;;;10.60;92.00;;;9.93;75.48;99245.03;5030114;28;19925;-79
2023/03/26 07:33:42;;;;;;;;;;;10.60;91.80;;;9.94;75.62;99245.84;5041899;28;19924;-79
2023/03/26 07:36:26;;;;;;;;;;;10.70;92.00;;;9.94;75.76;99244.00;5037118;28;20464;-80
2023/03/26 07:39:39;;;;;;;;;;;10.60;92.00;;;9.95;75.64;99240.28;5001954;28;19961;-80
2023/03/26 07:42:31;;;;;;;;;;;10.70;92.20;;;9.96;75.75;99235.78;5044364;28;19963;-80
2023/03/26 07:45:22;;;;;;;;;;;10.70;92.30;;;9.97;76.13;99230.22;5041229;28;20399;-83
2023/03/26 07:48:15;;;;;;;;;;;10.70;92.20;;;9.96;75.92;99228.59;5038820;28;19931;-80
2023/03/26 07:51:18;;;;;;;;;;;10.70;92.20;;;9.97;75.79;99224.06;5001106;28;20378;-81
2023/03/26 07:54:10;;;;;;;;;;;10.70;92.20;;;9.97;75.99;99216.09;5043839;28;19960;-80
2023/03/26 07:57:00;;;;;;;;;;;10.70;92.20;;;9.97;75.91;99219.56;5049157;28;20034;-80
2023/03/26 07:59:49;;;;;;;;;;;10.70;92.20;;;9.98;75.78;99207.03;5041927;28;19929;-79
2023/03/26 08:03:03;;;;;;;;;;;10.70;92.20;;;9.97;75.82;99206.25;5038737;28;20011;-80
2023/03/26 08:05:57;;;;;;;;;;;10.70;92.20;;;9.98;75.46;99212.38;5049286;28;20077;-79
2023/03/26 08:08:47;;;;;;;;;;;10.70;92.10;;;9.98;75.58;99201.72;5038613;28;19935;-79
2023/03/26 08:11:34;;;;;;;;;;;10.70;92.10;;;9.97;75.55;99202.78;5042360;28;20012;-83
2023/03/26 08:14:15;;;;;;;;;;;10.70;92.00;;;9.97;75.60;99198.25;5045602;28;20024;-79
2023/03/26 08:16:47;;;;;;;;;;;10.70;92.20;;;9.98;75.71;99201.72;5044475;28;19929;-79
2023/03/26 08:19:28;;;;;;;;;;;10.70;92.30;;;9.99;75.90;99196.13;5045645;28;20015;-79
2023/03/26 08:22:01;;;;;;;;;;;10.70;92.30;;;9.97;76.01;99192.13;5043295;28;19960;-79
2023/03/26 08:24:36;;;;;;;;;;;10.70;92.50;;;9.95;76.18;99199.53;5044838;28;19924;-80
2023/03/26 08:27:07;;;;;;;;;;;10.60;92.50;;;9.96;76.20;99196.63;5038761;28;19971;-78
2023/03/26 08:29:38;;;;;;;;;;;10.70;92.70;;;9.95;76.48;99189.66;5050558;28;20016;-79
2023/03/26 08:32:09;;;;;;;;;;;10.60;92.70;;;9.98;76.40;99191.06;5047023;28;20285;-80
2023/03/26 08:34:36;;;;;;;;;;;10.70;92.80;;;9.99;76.63;99196.13;5038842;28;19921;-79
2023/03/26 08:37:04;;;;;;;;;;;10.70;92.90;;;10.00;76.59;99191.63;5058281;28;20011;-81
2023/03/26 08:39:31;;;;;;;;;;;10.70;92.90;;;10.01;76.70;99193.25;5045424;28;19929;-80
2023/03/26 08:42:32;;;;;;;;;;;10.70;93.00;;;10.04;76.94;99195.44;5039856;28;19931;-79
2023/03/26 08:45:30;;;;;;;;;;;10.70;93.00;;;10.06;76.97;99191.50;5039198;28;19931;-76
2023/03/26 08:48:50;;;;;;;;;;;10.80;93.00;;;10.08;77.01;99193.91;5041742;28;19925;-79
2023/03/26 08:51:44;;;;;;;;;;;10.80;93.10;;;10.11;77.05;99189.97;5029375;28;20027;-78
2023/03/26 08:54:51;;;;;;;;;;;10.80;93.10;;;10.14;77.24;99190.28;5046970;28;19921;-79
2023/03/26 08:57:52;;;;;;;;;;;10.90;93.50;;;10.14;77.26;99182.28;5032843;28;19925;-82
2023/03/26 09:00:35;;;;;;;;;;;10.90;93.20;;;10.17;77.25;99187.16;5048167;28;19924;-78
2023/03/26 09:03:42;;;;;;;;;;;10.90;93.20;;;10.19;77.31;99185.03;5046764;28;20389;-77
2023/03/26 09:06:32;;;;;;;;;;;10.90;93.20;;;10.21;77.32;99184.81;5039020;28;19925;-77
2023/03/26 09:09:50;;;;;;;;;;;10.90;93.20;;;10.20;77.52;99186.69;5040081;28;20453;-77
2023/03/26 09:12:55;;;;;;;;;;;10.90;93.20;;;10.22;77.32;99186.44;5038307;28;20019;-78
2023/03/26 09:15:45;;;;;;;;;;;10.90;93.20;;;10.23;77.47;99182.72;5042689;28;19935;-78
2023/03/26 09:18:44;;;;;;;;;;;10.90;93.20;;;10.24;77.39;99181.69;5038529;28;19939;-78
2023/03/26 09:21:32;;;;;;;;;;;11.00;93.20;;;10.24;77.32;99185.16;5030673;28;19921;-79
2023/03/26 09:24:45;;;;;;;;;;;11.00;93.20;;;10.25;77.41;99183.31;5039798;28;20013;-79
2023/03/26 09:27:42;;;;;;;;;;;11.00;93.10;;;10.25;77.41;99184.13;5042332;28;20305;-77
2023/03/26 09:30:50;;;;;;;;;;;11.00;93.20;;;10.25;77.29;99170.81;5061689;28;19931;-77
2023/03/26 09:33:58;;;;;;;;;;;11.00;93.10;;;10.26;77.11;99171.63;5034082;28;20456;-78
2023/03/26 09:36:50;;;;;;;;;;;11.00;92.90;;;10.26;77.01;99179.59;5041476;28;19920;-79
2023/03/26 09:39:25;;;;;;;;;;;11.00;93.00;;;10.24;77.13;99166.50;5041966;28;19967;-81
2023/03/26 09:42:03;;;;;;;;;;;11.00;93.00;;;10.25;77.12;99170.81;5041972;28;20046;-77
2023/03/26 09:44:56;;;;;;;;;;;11.00;93.10;;;10.27;77.08;99162.56;5036609;28;20413;-78
2023/03/26 09:47:56;;;;;;;;;;;11.00;93.00;;;10.26;77.13;99167.09;5038516;28;20399;-77
2023/03/26 09:50:39;;;;;;;;;;;11.00;93.00;;;10.27;77.28;99168.69;5037048;28;20168;-79
2023/03/26 09:53:18;;;;;;;;;;;11.00;93.10;;;10.28;77.38;99170.31;5057936;28;19928;-78
2023/03/26 09:55:55;;;;;;;;;;;11.00;93.20;;;10.29;77.44;99165.78;5046267;28;19956;-82
2023/03/26 09:58:47;;;;;;;;;;;11.00;93.20;;;10.29;77.43;99163.91;5036523;28;19935;-79
2023/03/26 10:01:18;;;;;;;;;;;11.00;93.20;;;10.30;77.45;99164.75;5036528;28;20388;-80
2023/03/26 10:03:56;;;;;;;;;;;11.10;93.40;;;10.32;77.62;99157.31;5040361;28;19924;-78
2023/03/26 10:06:35;;;;;;;;;;;11.00;93.40;;;10.30;77.38;99160.22;5035872;28;19928;-76
2023/03/26 10:09:26;;;;;;;;;;;11.00;93.00;;;10.27;76.67;99155.38;5036901;28;20618;-80
2023/03/26 10:12:10;;;;;;;;;;;11.00;92.60;;;10.28;76.75;99150.84;5053135;22;19971;-87
2023/03/26 10:14:41;;;;;;;;;;;11.00;93.00;;;10.27;77.07;99152.72;5047018;28;19927;-84
2023/03/26 10:17:24;;;;;;;;;;;11.00;93.20;;;10.29;77.18;99153.25;5027261;28;19929;-85
2023/03/26 10:20:07;;;;;;;;;;;11.00;93.20;;;10.31;77.23;99153.03;5044594;28;19927;-80
2023/03/26 10:22:45;;;;;;;;;;;11.00;93.20;;;10.30;77.34;99149.56;5037960;28;19931;-82
2023/03/26 10:25:24;;;;;;;;;;;11.00;93.20;;;10.30;77.11;99144.25;5039367;28;19921;-82
2023/03/26 10:27:57;;;;;;;;;;;11.00;93.20;;;10.30;77.02;99152.25;5034636;28;19920;-80
2023/03/26 10:30:43;;;;;;;;;;;11.00;93.00;;;10.27;76.71;99150.03;5036150;28;19936;-82
2023/03/26 10:33:19;;;;;;;;;;;11.00;92.60;;;10.28;76.55;99151.66;5031387;28;19925;-83
2023/03/26 10:35:59;;;;;;;;;;;11.00;92.50;;;10.27;76.09;99144.72;5030791;28;19931;-81
2023/03/26 10:38:36;;;;;;;;;;;11.00;92.20;;;10.24;75.50;99150.50;5042083;28;19921;-83
2023/03/26 10:41:06;;;;;;;;;;;11.00;92.00;;;10.21;75.42;99151.00;5037891;28;19972;-84
2023/03/26 10:43:57;;;;;;;;;;;10.90;91.80;;;10.19;75.27;99147.75;5012742;28;19931;-81
2023/03/26 10:46:39;;;;;;;;;;;10.90;91.60;;;10.20;75.54;99148.53;5033450;28;19961;-83
2023/03/26 10:49:24;;;;;;;;;;;10.90;91.90;;;10.17;75.38;99147.19;5034678;28;19925;-79
2023/03/26 10:51:56;;;;;;;;;;;10.90;91.70;;;10.15;74.38;99141.31;5039808;28;19935;-80
2023/03/26 10:54:33;;;;;;;;;;;10.90;91.00;;;10.13;74.44;99147.91;5019430;28;19929;-83
2023/03/26 10:57:03;;;;;;;;;;;10.90;91.20;;;10.12;74.53;99141.78;5031176;28;19979;-84
2023/03/26 10:59:30;;;;;;;;;;;10.80;91.20;;;10.09;73.91;99134.25;5031616;28;19929;-88
2023/03/26 11:02:05;;;;;;;;;;;10.80;90.80;;;10.10;73.99;99138.53;5038214;28;20442;-86
2023/03/26 11:04:42;;;;;;;;;;;10.80;91.00;;;10.08;74.05;99137.97;5038046;28;19920;-85
2023/03/26 11:07:18;;;;;;;;;;;10.80;90.90;;;10.07;74.20;99137.16;5029709;28;19933;-84
2023/03/26 11:09:52;;;;;;;;;;;10.80;90.90;;;10.05;73.68;99133.94;5038419;28;19955;-82
2023/03/26 11:12:25;;;;;;;;;;;10.80;90.60;;;10.03;73.69;99132.56;5030899;28;19931;-84
2023/03/26 11:14:58;;;;;;;;;;;10.70;90.60;;;10.03;73.63;99138.69;5037767;28;19987;-82
2023/03/26 11:17:36;;;;;;;;;;;10.70;90.80;;;10.01;73.51;99134.66;5032417;28;19924;-88
2023/03/26 11:20:07;;;;;;;;;;;10.70;90.70;;;10.01;73.55;99140.00;5021686;28;20392;-83
2023/03/26 11:22:43;;;;;;;;;;;10.70;90.60;;;9.99;73.47;99129.56;5039561;28;19925;-81
2023/03/26 11:25:26;;;;;;;;;;;10.70;90.80;;;9.99;73.56;99140.22;5036281;28;20393;-79
2023/03/26 11:28:05;;;;;;;;;;;10.70;90.70;;;9.99;73.71;99131.41;5037946;28;19955;-81
2023/03/26 11:30:40;;;;;;;;;;;10.70;91.00;;;9.99;74.14;99131.41;5045844;28;19927;-81
2023/03/26 11:33:10;;;;;;;;;;;10.70;91.30;;;9.98;74.08;99129.81;5044379;28;20296;-79
2023/03/26 11:35:40;;;;;;;;;;;10.70;91.00;;;9.97;73.89;99142.31;5044229;28;19943;-79
2023/03/26 11:38:16;;;;;;;;;;;10.60;90.80;;;9.96;73.82;99139.91;5034214;28;20252;-83
2023/03/26 11:40:49;;;;;;;;;;;10.60;90.80;;;9.96;74.15;99132.72;5051804;28;19925;-83
2023/03/26 11:43:28;;;;;;;;;;;10.60;91.10;;;9.98;74.27;99129.81;5041542;28;20602;-82
2023/03/26 11:45:55;;;;;;;;;;;10.60;91.40;;;9.99;74.01;99124.22;5039604;28;19929;-84
2023/03/26 11:48:26;;;;;;;;;;;10.60;91.10;;;9.99;74.02;99126.09;5042492;28;19921;-90
2023/03/26 11:50:57;;;;;;;;;;;10.70;91.30;;;9.96;73.50;99131.91;5037125;28;20332;-84
2023/03/26 11:53:28;;;;;;;;;;;10.60;90.60;;;9.98;73.79;99124.47;5052131;28;19987;-84
2023/03/26 11:56:02;;;;;;;;;;;10.60;91.00;;;9.97;73.98;99122.88;5041754;28;19924;-86
2023/03/26 11:58:32;;;;;;;;;;;10.60;91.00;;;9.97;73.44;99123.69;5040165;28;19932;-80
2023/03/26 12:01:13;;;;;;;;;;;10.60;90.60;;;9.97;73.10;99121.00;5042666;28;19943;-83
2023/03/26 12:03:40;;;;;;;;;;;10.60;90.30;;;9.97;73.37;99121.00;5023258;28;19925;-83
2023/03/26 12:06:22;;;;;;;;;;;10.60;90.70;;;9.99;73.53;99123.44;5034115;28;19921;-82
2023/03/26 12:08:51;;;;;;;;;;;10.60;90.80;;;10.01;73.90;99119.50;5035861;28;19932;-84
2023/03/26 12:11:20;;;;;;;;;;;10.60;91.10;;;10.02;74.58;99113.09;5020047;28;20010;-83
2023/03/26 12:13:52;;;;;;;;;;;10.70;92.00;;;10.06;74.91;99118.75;5039451;28;19933;-82
2023/03/26 12:16:20;;;;;;;;;;;10.70;92.00;;;10.08;74.62;99119.31;5036322;28;19920;-79